sensor_id;sensor_type;location;lat;lon;timestamp;P1;durP1;ratioP1;P2;durP2;ratioP2
69989;SDS011;57331;52.054;5.294;2024-02-26T00:01:10;9.18;;;4.60;;
69989;SDS011;57331;52.054;5.294;2024-02-26T00:03:37;12.32;;;5.03;;
69989;SDS011;57331;52.054;5.294;2024-02-26T00:06:08;7.60;;;4.20;;
69989;SDS011;57331;52.054;5.294;2024-02-26T00:08:35;8.90;;;4.25;;
69989;SDS011;57331;52.054;5.294;2024-02-26T00:11:03;8.73;;;4.82;;
69989;SDS011;57331;52.054;5.294;2024-02-26T00:13:30;9.05;;;4.93;;
69989;SDS011;57331;52.054;5.294;2024-02-26T00:15:57;9.35;;;4.85;;
69989;SDS011;57331;52.054;5.294;2024-02-26T00:18:25;8.90;;;5.10;;
69989;SDS011;57331;52.054;5.294;2024-02-26T00:20:52;8.85;;;4.70;;
69989;SDS011;57331;52.054;5.294;2024-02-26T00:23:19;7.20;;;3.85;;
69989;SDS011;57331;52.054;5.294;2024-02-26T00:25:47;9.30;;;4.38;;
69989;SDS011;57331;52.054;5.294;2024-02-26T00:28:14;9.32;;;4.85;;
69989;SDS011;57331;52.054;5.294;2024-02-26T00:30:41;9.40;;;5.20;;
69989;SDS011;57331;52.054;5.294;2024-02-26T00:33:09;9.88;;;4.55;;
69989;SDS011;57331;52.054;5.294;2024-02-26T00:35:36;10.15;;;4.80;;
69989;SDS011;57331;52.054;5.294;2024-02-26T00:38:04;7.97;;;4.38;;
69989;SDS011;57331;52.054;5.294;2024-02-26T00:40:31;10.70;;;4.97;;
69989;SDS011;57331;52.054;5.294;2024-02-26T00:42:58;10.07;;;4.47;;
69989;SDS011;57331;52.054;5.294;2024-02-26T00:45:25;12.52;;;5.22;;
69989;SDS011;57331;52.054;5.294;2024-02-26T00:47:52;9.40;;;4.60;;
69989;SDS011;57331;52.054;5.294;2024-02-26T00:50:20;8.60;;;4.15;;
69989;SDS011;57331;52.054;5.294;2024-02-26T00:52:47;9.95;;;4.95;;
69989;SDS011;57331;52.054;5.294;2024-02-26T00:55:15;10.17;;;5.47;;
69989;SDS011;57331;52.054;5.294;2024-02-26T00:57:42;8.60;;;4.13;;
69989;SDS011;57331;52.054;5.294;2024-02-26T01:00:10;9.40;;;4.40;;
69989;SDS011;57331;52.054;5.294;2024-02-26T01:02:38;9.70;;;4.75;;
69989;SDS011;57331;52.054;5.294;2024-02-26T01:05:08;14.10;;;4.95;;
69989;SDS011;57331;52.054;5.294;2024-02-26T01:07:38;13.50;;;4.70;;
69989;SDS011;57331;52.054;5.294;2024-02-26T01:10:06;11.23;;;5.07;;
69989;SDS011;57331;52.054;5.294;2024-02-26T01:12:34;8.18;;;4.35;;
69989;SDS011;57331;52.054;5.294;2024-02-26T01:15:02;9.77;;;4.68;;
69989;SDS011;57331;52.054;5.294;2024-02-26T01:17:32;9.23;;;4.85;;
69989;SDS011;57331;52.054;5.294;2024-02-26T01:19:59;9.73;;;4.93;;
69989;SDS011;57331;52.054;5.294;2024-02-26T01:22:26;9.10;;;4.72;;
69989;SDS011;57331;52.054;5.294;2024-02-26T01:24:54;10.27;;;5.32;;
69989;SDS011;57331;52.054;5.294;2024-02-26T01:27:23;9.68;;;5.07;;
69989;SDS011;57331;52.054;5.294;2024-02-26T01:29:53;9.30;;;4.75;;
69989;SDS011;57331;52.054;5.294;2024-02-26T01:32:20;8.70;;;4.80;;
69989;SDS011;57331;52.054;5.294;2024-02-26T01:34:47;8.88;;;4.60;;
69989;SDS011;57331;52.054;5.294;2024-02-26T01:37:14;10.32;;;5.47;;
69989;SDS011;57331;52.054;5.294;2024-02-26T01:39:41;9.07;;;5.35;;
69989;SDS011;57331;52.054;5.294;2024-02-26T01:42:08;10.00;;;4.78;;
69989;SDS011;57331;52.054;5.294;2024-02-26T01:44:35;9.33;;;4.83;;
69989;SDS011;57331;52.054;5.294;2024-02-26T01:47:05;10.63;;;5.22;;
69989;SDS011;57331;52.054;5.294;2024-02-26T01:49:34;9.50;;;5.03;;
69989;SDS011;57331;52.054;5.294;2024-02-26T01:52:02;7.97;;;4.28;;
69989;SDS011;57331;52.054;5.294;2024-02-26T01:54:30;9.50;;;5.18;;
69989;SDS011;57331;52.054;5.294;2024-02-26T01:56:58;10.67;;;5.20;;
69989;SDS011;57331;52.054;5.294;2024-02-26T01:59:26;8.55;;;4.32;;
69989;SDS011;57331;52.054;5.294;2024-02-26T02:01:54;10.40;;;5.60;;
69989;SDS011;57331;52.054;5.294;2024-02-26T02:04:23;9.18;;;4.88;;
69989;SDS011;57331;52.054;5.294;2024-02-26T02:06:51;10.20;;;4.78;;
69989;SDS011;57331;52.054;5.294;2024-02-26T02:09:19;8.63;;;4.63;;
69989;SDS011;57331;52.054;5.294;2024-02-26T02:11:46;11.63;;;6.13;;
69989;SDS011;57331;52.054;5.294;2024-02-26T02:14:15;10.57;;;5.15;;
69989;SDS011;57331;52.054;5.294;2024-02-26T02:16:42;10.60;;;5.20;;
69989;SDS011;57331;52.054;5.294;2024-02-26T02:19:09;8.73;;;3.83;;
69989;SDS011;57331;52.054;5.294;2024-02-26T02:21:37;10.50;;;5.23;;
69989;SDS011;57331;52.054;5.294;2024-02-26T02:24:04;8.90;;;4.93;;
69989;SDS011;57331;52.054;5.294;2024-02-26T02:26:31;9.10;;;4.47;;
69989;SDS011;57331;52.054;5.294;2024-02-26T02:28:59;11.55;;;5.40;;
69989;SDS011;57331;52.054;5.294;2024-02-26T02:31:26;9.95;;;5.50;;
69989;SDS011;57331;52.054;5.294;2024-02-26T02:33:54;9.93;;;4.70;;
69989;SDS011;57331;52.054;5.294;2024-02-26T02:36:21;8.75;;;4.47;;
69989;SDS011;57331;52.054;5.294;2024-02-26T02:38:50;11.05;;;5.57;;
69989;SDS011;57331;52.054;5.294;2024-02-26T02:41:18;10.15;;;5.35;;
69989;SDS011;57331;52.054;5.294;2024-02-26T02:43:45;10.18;;;4.95;;
69989;SDS011;57331;52.054;5.294;2024-02-26T02:46:12;13.73;;;6.27;;
69989;SDS011;57331;52.054;5.294;2024-02-26T02:48:41;9.05;;;4.93;;
69989;SDS011;57331;52.054;5.294;2024-02-26T02:51:09;10.25;;;5.38;;
69989;SDS011;57331;52.054;5.294;2024-02-26T02:53:37;11.07;;;5.68;;
69989;SDS011;57331;52.054;5.294;2024-02-26T02:56:04;12.07;;;5.68;;
69989;SDS011;57331;52.054;5.294;2024-02-26T02:58:32;10.40;;;5.43;;
69989;SDS011;57331;52.054;5.294;2024-02-26T03:00:59;11.75;;;5.85;;
69989;SDS011;57331;52.054;5.294;2024-02-26T03:03:27;10.30;;;5.30;;
69989;SDS011;57331;52.054;5.294;2024-02-26T03:05:55;11.98;;;6.30;;
69989;SDS011;57331;52.054;5.294;2024-02-26T03:08:23;10.57;;;5.65;;
69989;SDS011;57331;52.054;5.294;2024-02-26T03:10:52;11.40;;;5.90;;
69989;SDS011;57331;52.054;5.294;2024-02-26T03:13:20;13.00;;;5.82;;
69989;SDS011;57331;52.054;5.294;2024-02-26T03:15:47;10.48;;;5.40;;
69989;SDS011;57331;52.054;5.294;2024-02-26T03:18:14;11.63;;;5.70;;
69989;SDS011;57331;52.054;5.294;2024-02-26T03:20:43;11.15;;;5.32;;
69989;SDS011;57331;52.054;5.294;2024-02-26T03:23:11;13.60;;;6.83;;
69989;SDS011;57331;52.054;5.294;2024-02-26T03:25:41;10.48;;;5.95;;
69989;SDS011;57331;52.054;5.294;2024-02-26T03:28:09;14.50;;;5.70;;
69989;SDS011;57331;52.054;5.294;2024-02-26T03:30:36;13.77;;;5.30;;
69989;SDS011;57331;52.054;5.294;2024-02-26T03:33:03;11.20;;;5.72;;
69989;SDS011;57331;52.054;5.294;2024-02-26T03:35:31;12.27;;;5.90;;
69989;SDS011;57331;52.054;5.294;2024-02-26T03:37:58;12.10;;;5.60;;
69989;SDS011;57331;52.054;5.294;2024-02-26T03:40:25;11.57;;;5.65;;
69989;SDS011;57331;52.054;5.294;2024-02-26T03:42:52;10.30;;;5.70;;
69989;SDS011;57331;52.054;5.294;2024-02-26T03:45:20;13.77;;;6.00;;
69989;SDS011;57331;52.054;5.294;2024-02-26T03:47:47;11.00;;;5.73;;
69989;SDS011;57331;52.054;5.294;2024-02-26T03:50:15;10.98;;;6.28;;
69989;SDS011;57331;52.054;5.294;2024-02-26T03:52:42;11.52;;;5.85;;
69989;SDS011;57331;52.054;5.294;2024-02-26T03:55:10;12.38;;;5.88;;
69989;SDS011;57331;52.054;5.294;2024-02-26T03:57:37;12.52;;;6.45;;
69989;SDS011;57331;52.054;5.294;2024-02-26T04:00:05;16.17;;;6.10;;
69989;SDS011;57331;52.054;5.294;2024-02-26T04:02:41;12.82;;;6.47;;
69989;SDS011;57331;52.054;5.294;2024-02-26T04:05:09;13.18;;;5.93;;
69989;SDS011;57331;52.054;5.294;2024-02-26T04:07:37;11.43;;;6.18;;
69989;SDS011;57331;52.054;5.294;2024-02-26T04:10:08;14.23;;;6.97;;
69989;SDS011;57331;52.054;5.294;2024-02-26T04:12:37;11.53;;;6.70;;
69989;SDS011;57331;52.054;5.294;2024-02-26T04:15:08;13.40;;;6.63;;
69989;SDS011;57331;52.054;5.294;2024-02-26T04:17:36;12.65;;;6.13;;
69989;SDS011;57331;52.054;5.294;2024-02-26T04:20:05;13.05;;;6.10;;
69989;SDS011;57331;52.054;5.294;2024-02-26T04:22:33;13.27;;;6.95;;
69989;SDS011;57331;52.054;5.294;2024-02-26T04:25:00;14.90;;;6.87;;
69989;SDS011;57331;52.054;5.294;2024-02-26T04:27:27;14.50;;;6.85;;
69989;SDS011;57331;52.054;5.294;2024-02-26T04:29:54;12.10;;;6.72;;
69989;SDS011;57331;52.054;5.294;2024-02-26T04:32:22;12.73;;;6.65;;
69989;SDS011;57331;52.054;5.294;2024-02-26T04:34:49;12.93;;;6.50;;
69989;SDS011;57331;52.054;5.294;2024-02-26T04:37:16;13.17;;;6.43;;
69989;SDS011;57331;52.054;5.294;2024-02-26T04:39:43;12.68;;;6.88;;
69989;SDS011;57331;52.054;5.294;2024-02-26T04:42:16;14.00;;;6.28;;
69989;SDS011;57331;52.054;5.294;2024-02-26T04:44:43;12.80;;;6.70;;
69989;SDS011;57331;52.054;5.294;2024-02-26T04:47:10;12.80;;;6.70;;
69989;SDS011;57331;52.054;5.294;2024-02-26T04:49:38;13.23;;;7.00;;
69989;SDS011;57331;52.054;5.294;2024-02-26T04:52:05;14.45;;;7.05;;
69989;SDS011;57331;52.054;5.294;2024-02-26T04:54:32;15.48;;;6.88;;
69989;SDS011;57331;52.054;5.294;2024-02-26T04:56:59;11.32;;;5.80;;
69989;SDS011;57331;52.054;5.294;2024-02-26T04:59:26;13.82;;;6.60;;
69989;SDS011;57331;52.054;5.294;2024-02-26T05:01:54;11.97;;;5.40;;
69989;SDS011;57331;52.054;5.294;2024-02-26T05:04:21;11.98;;;6.18;;
69989;SDS011;57331;52.054;5.294;2024-02-26T05:06:49;15.73;;;6.20;;
69989;SDS011;57331;52.054;5.294;2024-02-26T05:09:17;13.27;;;6.20;;
69989;SDS011;57331;52.054;5.294;2024-02-26T05:11:44;12.07;;;6.35;;
69989;SDS011;57331;52.054;5.294;2024-02-26T05:14:11;12.07;;;6.03;;
69989;SDS011;57331;52.054;5.294;2024-02-26T05:16:38;15.27;;;6.95;;
69989;SDS011;57331;52.054;5.294;2024-02-26T05:19:06;12.52;;;6.13;;
69989;SDS011;57331;52.054;5.294;2024-02-26T05:21:33;16.08;;;6.75;;
69989;SDS011;57331;52.054;5.294;2024-02-26T05:24:00;11.57;;;6.18;;
69989;SDS011;57331;52.054;5.294;2024-02-26T05:26:27;12.30;;;6.57;;
69989;SDS011;57331;52.054;5.294;2024-02-26T05:28:55;13.85;;;6.57;;
69989;SDS011;57331;52.054;5.294;2024-02-26T05:31:26;9.57;;;5.13;;
69989;SDS011;57331;52.054;5.294;2024-02-26T05:33:54;10.90;;;5.85;;
69989;SDS011;57331;52.054;5.294;2024-02-26T05:36:23;13.07;;;5.95;;
69989;SDS011;57331;52.054;5.294;2024-02-26T05:38:50;13.07;;;5.83;;
69989;SDS011;57331;52.054;5.294;2024-02-26T05:41:18;11.55;;;5.82;;
69989;SDS011;57331;52.054;5.294;2024-02-26T05:43:49;10.98;;;5.47;;
69989;SDS011;57331;52.054;5.294;2024-02-26T05:46:17;14.70;;;6.18;;
69989;SDS011;57331;52.054;5.294;2024-02-26T05:48:46;7.68;;;3.97;;
69989;SDS011;57331;52.054;5.294;2024-02-26T05:51:14;10.87;;;5.43;;
69989;SDS011;57331;52.054;5.294;2024-02-26T05:53:42;11.13;;;5.93;;
69989;SDS011;57331;52.054;5.294;2024-02-26T05:56:09;13.85;;;6.22;;
69989;SDS011;57331;52.054;5.294;2024-02-26T05:58:37;11.13;;;5.28;;
69989;SDS011;57331;52.054;5.294;2024-02-26T06:01:04;12.05;;;6.68;;
69989;SDS011;57331;52.054;5.294;2024-02-26T06:03:31;10.87;;;5.73;;
69989;SDS011;57331;52.054;5.294;2024-02-26T06:05:59;15.57;;;6.95;;
69989;SDS011;57331;52.054;5.294;2024-02-26T06:08:26;12.27;;;6.50;;
69989;SDS011;57331;52.054;5.294;2024-02-26T06:10:54;13.70;;;7.13;;
69989;SDS011;57331;52.054;5.294;2024-02-26T06:13:21;15.23;;;7.60;;
69989;SDS011;57331;52.054;5.294;2024-02-26T06:15:49;17.50;;;6.63;;
69989;SDS011;57331;52.054;5.294;2024-02-26T06:18:16;12.25;;;6.30;;
69989;SDS011;57331;52.054;5.294;2024-02-26T06:20:43;13.55;;;6.70;;
69989;SDS011;57331;52.054;5.294;2024-02-26T06:23:12;16.27;;;7.78;;
69989;SDS011;57331;52.054;5.294;2024-02-26T06:25:39;14.07;;;7.15;;
69989;SDS011;57331;52.054;5.294;2024-02-26T06:28:08;13.93;;;6.97;;
69989;SDS011;57331;52.054;5.294;2024-02-26T06:30:36;17.25;;;7.05;;
69989;SDS011;57331;52.054;5.294;2024-02-26T06:33:03;14.32;;;6.82;;
69989;SDS011;57331;52.054;5.294;2024-02-26T06:35:31;13.95;;;6.65;;
69989;SDS011;57331;52.054;5.294;2024-02-26T06:37:58;14.65;;;7.57;;
69989;SDS011;57331;52.054;5.294;2024-02-26T06:40:25;14.50;;;7.30;;
69989;SDS011;57331;52.054;5.294;2024-02-26T06:42:52;19.85;;;8.13;;
69989;SDS011;57331;52.054;5.294;2024-02-26T06:45:20;15.73;;;6.90;;
69989;SDS011;57331;52.054;5.294;2024-02-26T06:47:47;13.15;;;6.38;;
69989;SDS011;57331;52.054;5.294;2024-02-26T06:50:15;16.95;;;7.00;;
69989;SDS011;57331;52.054;5.294;2024-02-26T06:52:43;12.53;;;5.80;;
69989;SDS011;57331;52.054;5.294;2024-02-26T06:55:10;14.52;;;6.80;;
69989;SDS011;57331;52.054;5.294;2024-02-26T06:57:38;13.77;;;6.72;;
69989;SDS011;57331;52.054;5.294;2024-02-26T07:00:05;18.38;;;7.65;;
69989;SDS011;57331;52.054;5.294;2024-02-26T07:02:33;15.45;;;7.20;;
69989;SDS011;57331;52.054;5.294;2024-02-26T07:05:05;14.80;;;7.30;;
69989;SDS011;57331;52.054;5.294;2024-02-26T07:07:32;13.55;;;5.72;;
69989;SDS011;57331;52.054;5.294;2024-02-26T07:09:59;17.25;;;7.05;;
69989;SDS011;57331;52.054;5.294;2024-02-26T07:12:30;16.17;;;8.02;;
69989;SDS011;57331;52.054;5.294;2024-02-26T07:14:57;19.52;;;8.73;;
69989;SDS011;57331;52.054;5.294;2024-02-26T07:17:24;18.70;;;8.80;;
69989;SDS011;57331;52.054;5.294;2024-02-26T07:19:52;17.17;;;8.15;;
69989;SDS011;57331;52.054;5.294;2024-02-26T07:22:19;18.08;;;8.73;;
69989;SDS011;57331;52.054;5.294;2024-02-26T07:24:46;21.52;;;9.35;;
69989;SDS011;57331;52.054;5.294;2024-02-26T07:27:13;20.38;;;8.93;;
69989;SDS011;57331;52.054;5.294;2024-02-26T07:29:44;22.83;;;9.53;;
69989;SDS011;57331;52.054;5.294;2024-02-26T07:32:11;21.35;;;8.98;;
69989;SDS011;57331;52.054;5.294;2024-02-26T07:34:39;19.38;;;8.93;;
69989;SDS011;57331;52.054;5.294;2024-02-26T07:37:08;22.13;;;9.15;;
69989;SDS011;57331;52.054;5.294;2024-02-26T07:39:35;29.42;;;10.20;;
69989;SDS011;57331;52.054;5.294;2024-02-26T07:42:03;22.87;;;9.93;;
69989;SDS011;57331;52.054;5.294;2024-02-26T07:44:31;26.08;;;10.68;;
69989;SDS011;57331;52.054;5.294;2024-02-26T07:46:58;24.23;;;10.10;;
69989;SDS011;57331;52.054;5.294;2024-02-26T07:49:25;22.25;;;10.02;;
69989;SDS011;57331;52.054;5.294;2024-02-26T07:51:53;24.52;;;10.50;;
69989;SDS011;57331;52.054;5.294;2024-02-26T07:54:21;25.27;;;9.90;;
69989;SDS011;57331;52.054;5.294;2024-02-26T07:56:48;23.75;;;10.25;;
69989;SDS011;57331;52.054;5.294;2024-02-26T07:59:15;27.63;;;9.68;;
69989;SDS011;57331;52.054;5.294;2024-02-26T08:01:43;23.52;;;9.95;;
69989;SDS011;57331;52.054;5.294;2024-02-26T08:04:16;27.67;;;11.80;;
69989;SDS011;57331;52.054;5.294;2024-02-26T08:06:43;26.50;;;11.27;;
69989;SDS011;57331;52.054;5.294;2024-02-26T08:09:11;22.05;;;9.43;;
69989;SDS011;57331;52.054;5.294;2024-02-26T08:11:39;26.48;;;10.63;;
69989;SDS011;57331;52.054;5.294;2024-02-26T08:14:06;26.40;;;11.05;;
69989;SDS011;57331;52.054;5.294;2024-02-26T08:16:33;29.08;;;11.85;;
69989;SDS011;57331;52.054;5.294;2024-02-26T08:19:02;29.83;;;12.30;;
69989;SDS011;57331;52.054;5.294;2024-02-26T08:21:30;22.42;;;10.65;;
69989;SDS011;57331;52.054;5.294;2024-02-26T08:23:57;23.02;;;11.05;;
69989;SDS011;57331;52.054;5.294;2024-02-26T08:26:24;25.08;;;11.60;;
69989;SDS011;57331;52.054;5.294;2024-02-26T08:28:51;20.65;;;9.57;;
69989;SDS011;57331;52.054;5.294;2024-02-26T08:31:20;27.47;;;13.00;;
69989;SDS011;57331;52.054;5.294;2024-02-26T08:33:50;35.33;;;11.15;;
69989;SDS011;57331;52.054;5.294;2024-02-26T08:36:17;29.02;;;13.20;;
69989;SDS011;57331;52.054;5.294;2024-02-26T08:38:45;31.48;;;13.25;;
69989;SDS011;57331;52.054;5.294;2024-02-26T08:41:13;30.42;;;12.40;;
69989;SDS011;57331;52.054;5.294;2024-02-26T08:43:40;27.40;;;12.90;;
69989;SDS011;57331;52.054;5.294;2024-02-26T08:46:10;26.00;;;12.02;;
69989;SDS011;57331;52.054;5.294;2024-02-26T08:48:39;30.92;;;11.77;;
69989;SDS011;57331;52.054;5.294;2024-02-26T08:51:07;25.15;;;11.63;;
69989;SDS011;57331;52.054;5.294;2024-02-26T08:53:38;19.10;;;9.15;;
69989;SDS011;57331;52.054;5.294;2024-02-26T08:56:09;21.30;;;10.07;;
69989;SDS011;57331;52.054;5.294;2024-02-26T08:58:44;20.00;;;10.30;;
69989;SDS011;57331;52.054;5.294;2024-02-26T09:01:15;20.92;;;9.50;;
69989;SDS011;57331;52.054;5.294;2024-02-26T09:03:43;25.10;;;11.00;;
69989;SDS011;57331;52.054;5.294;2024-02-26T09:06:10;18.63;;;8.10;;
69989;SDS011;57331;52.054;5.294;2024-02-26T09:08:40;17.37;;;8.57;;
69989;SDS011;57331;52.054;5.294;2024-02-26T09:11:08;15.23;;;8.05;;
69989;SDS011;57331;52.054;5.294;2024-02-26T09:13:36;19.45;;;9.52;;
69989;SDS011;57331;52.054;5.294;2024-02-26T09:16:04;17.67;;;7.85;;
69989;SDS011;57331;52.054;5.294;2024-02-26T09:18:32;21.25;;;8.95;;
69989;SDS011;57331;52.054;5.294;2024-02-26T09:20:59;21.27;;;9.20;;
69989;SDS011;57331;52.054;5.294;2024-02-26T09:23:27;20.13;;;8.55;;
69989;SDS011;57331;52.054;5.294;2024-02-26T09:25:54;12.48;;;5.75;;
69989;SDS011;57331;52.054;5.294;2024-02-26T09:28:21;19.77;;;8.13;;
69989;SDS011;57331;52.054;5.294;2024-02-26T09:30:49;17.73;;;7.88;;
69989;SDS011;57331;52.054;5.294;2024-02-26T09:33:17;20.83;;;7.63;;
69989;SDS011;57331;52.054;5.294;2024-02-26T09:35:44;17.55;;;8.15;;
69989;SDS011;57331;52.054;5.294;2024-02-26T09:38:12;15.07;;;7.57;;
69989;SDS011;57331;52.054;5.294;2024-02-26T09:40:39;18.55;;;8.07;;
69989;SDS011;57331;52.054;5.294;2024-02-26T09:43:07;16.40;;;7.60;;
69989;SDS011;57331;52.054;5.294;2024-02-26T09:45:40;21.10;;;8.63;;
69989;SDS011;57331;52.054;5.294;2024-02-26T09:48:08;15.95;;;7.57;;
69989;SDS011;57331;52.054;5.294;2024-02-26T09:50:36;12.68;;;5.18;;
69989;SDS011;57331;52.054;5.294;2024-02-26T09:53:03;11.50;;;5.72;;
69989;SDS011;57331;52.054;5.294;2024-02-26T09:55:31;14.48;;;7.35;;
69989;SDS011;57331;52.054;5.294;2024-02-26T09:57:58;16.07;;;7.53;;
69989;SDS011;57331;52.054;5.294;2024-02-26T10:00:26;15.02;;;7.00;;
69989;SDS011;57331;52.054;5.294;2024-02-26T10:02:59;18.23;;;6.68;;
69989;SDS011;57331;52.054;5.294;2024-02-26T10:05:36;14.52;;;6.20;;
69989;SDS011;57331;52.054;5.294;2024-02-26T10:08:04;14.98;;;6.90;;
69989;SDS011;57331;52.054;5.294;2024-02-26T10:10:31;14.47;;;6.87;;
69989;SDS011;57331;52.054;5.294;2024-02-26T10:12:59;12.48;;;6.05;;
69989;SDS011;57331;52.054;5.294;2024-02-26T10:15:27;15.13;;;7.00;;
69989;SDS011;57331;52.054;5.294;2024-02-26T10:17:55;14.07;;;6.70;;
69989;SDS011;57331;52.054;5.294;2024-02-26T10:20:23;14.85;;;6.65;;
69989;SDS011;57331;52.054;5.294;2024-02-26T10:22:52;11.80;;;6.03;;
69989;SDS011;57331;52.054;5.294;2024-02-26T10:25:20;12.23;;;5.85;;
69989;SDS011;57331;52.054;5.294;2024-02-26T10:27:47;17.67;;;6.97;;
69989;SDS011;57331;52.054;5.294;2024-02-26T10:30:18;10.52;;;5.00;;
69989;SDS011;57331;52.054;5.294;2024-02-26T10:32:51;15.07;;;6.40;;
69989;SDS011;57331;52.054;5.294;2024-02-26T10:35:18;16.43;;;6.23;;
69989;SDS011;57331;52.054;5.294;2024-02-26T10:37:49;18.25;;;6.63;;
69989;SDS011;57331;52.054;5.294;2024-02-26T10:40:17;13.65;;;6.60;;
69989;SDS011;57331;52.054;5.294;2024-02-26T10:42:44;18.73;;;6.95;;
69989;SDS011;57331;52.054;5.294;2024-02-26T10:45:12;13.05;;;6.25;;
69989;SDS011;57331;52.054;5.294;2024-02-26T10:47:40;16.43;;;6.47;;
69989;SDS011;57331;52.054;5.294;2024-02-26T10:50:11;10.95;;;4.75;;
69989;SDS011;57331;52.054;5.294;2024-02-26T10:52:40;11.23;;;5.13;;
69989;SDS011;57331;52.054;5.294;2024-02-26T10:55:11;11.75;;;5.97;;
69989;SDS011;57331;52.054;5.294;2024-02-26T10:57:45;17.88;;;6.88;;
69989;SDS011;57331;52.054;5.294;2024-02-26T11:00:13;16.20;;;6.47;;
69989;SDS011;57331;52.054;5.294;2024-02-26T11:02:41;11.63;;;5.80;;
69989;SDS011;57331;52.054;5.294;2024-02-26T11:05:11;14.90;;;6.38;;
69989;SDS011;57331;52.054;5.294;2024-02-26T11:07:39;12.05;;;6.38;;
69989;SDS011;57331;52.054;5.294;2024-02-26T11:10:08;10.45;;;5.25;;
69989;SDS011;57331;52.054;5.294;2024-02-26T11:12:37;12.93;;;6.10;;
69989;SDS011;57331;52.054;5.294;2024-02-26T11:15:06;14.18;;;6.13;;
69989;SDS011;57331;52.054;5.294;2024-02-26T11:17:35;13.45;;;5.90;;
69989;SDS011;57331;52.054;5.294;2024-02-26T11:20:05;13.98;;;5.78;;
69989;SDS011;57331;52.054;5.294;2024-02-26T11:22:37;11.57;;;5.18;;
69989;SDS011;57331;52.054;5.294;2024-02-26T11:25:04;9.33;;;4.43;;
69989;SDS011;57331;52.054;5.294;2024-02-26T11:27:34;13.95;;;5.57;;
69989;SDS011;57331;52.054;5.294;2024-02-26T11:30:08;10.52;;;5.22;;
69989;SDS011;57331;52.054;5.294;2024-02-26T11:32:37;11.43;;;5.32;;
69989;SDS011;57331;52.054;5.294;2024-02-26T11:35:05;14.57;;;6.10;;
69989;SDS011;57331;52.054;5.294;2024-02-26T11:37:33;15.00;;;6.63;;
69989;SDS011;57331;52.054;5.294;2024-02-26T11:40:06;11.30;;;5.10;;
69989;SDS011;57331;52.054;5.294;2024-02-26T11:42:43;13.95;;;6.50;;
69989;SDS011;57331;52.054;5.294;2024-02-26T11:48:16;13.43;;;6.43;;
69989;SDS011;57331;52.054;5.294;2024-02-26T11:50:53;15.33;;;6.87;;
69989;SDS011;57331;52.054;5.294;2024-02-26T11:58:45;14.27;;;6.00;;
69989;SDS011;57331;52.054;5.294;2024-02-26T12:04:02;13.70;;;6.90;;
69989;SDS011;57331;52.054;5.294;2024-02-26T12:06:45;16.23;;;6.65;;
69989;SDS011;57331;52.054;5.294;2024-02-26T12:09:30;13.13;;;6.13;;
69989;SDS011;57331;52.054;5.294;2024-02-26T12:12:08;12.25;;;6.57;;
69989;SDS011;57331;52.054;5.294;2024-02-26T12:14:38;12.48;;;6.75;;
69989;SDS011;57331;52.054;5.294;2024-02-26T12:17:06;16.23;;;7.27;;
69989;SDS011;57331;52.054;5.294;2024-02-26T12:19:45;16.23;;;6.97;;
69989;SDS011;57331;52.054;5.294;2024-02-26T12:22:12;15.68;;;7.35;;
69989;SDS011;57331;52.054;5.294;2024-02-26T12:24:40;16.67;;;6.72;;
69989;SDS011;57331;52.054;5.294;2024-02-26T12:27:08;16.23;;;6.85;;
69989;SDS011;57331;52.054;5.294;2024-02-26T12:29:35;15.53;;;7.63;;
69989;SDS011;57331;52.054;5.294;2024-02-26T12:32:06;19.65;;;8.38;;
69989;SDS011;57331;52.054;5.294;2024-02-26T12:34:33;12.57;;;5.90;;
69989;SDS011;57331;52.054;5.294;2024-02-26T12:37:02;16.42;;;7.07;;
69989;SDS011;57331;52.054;5.294;2024-02-26T12:39:29;14.48;;;7.18;;
69989;SDS011;57331;52.054;5.294;2024-02-26T12:41:57;13.67;;;6.73;;
69989;SDS011;57331;52.054;5.294;2024-02-26T12:44:26;15.85;;;6.05;;
69989;SDS011;57331;52.054;5.294;2024-02-26T12:47:00;13.43;;;6.15;;
69989;SDS011;57331;52.054;5.294;2024-02-26T12:49:29;10.90;;;5.47;;
69989;SDS011;57331;52.054;5.294;2024-02-26T12:51:58;13.80;;;6.35;;
69989;SDS011;57331;52.054;5.294;2024-02-26T12:54:29;12.33;;;6.30;;
69989;SDS011;57331;52.054;5.294;2024-02-26T12:56:59;14.02;;;5.68;;
69989;SDS011;57331;52.054;5.294;2024-02-26T12:59:28;14.27;;;6.03;;
69989;SDS011;57331;52.054;5.294;2024-02-26T13:01:56;12.60;;;6.70;;
69989;SDS011;57331;52.054;5.294;2024-02-26T13:04:24;13.90;;;5.80;;
69989;SDS011;57331;52.054;5.294;2024-02-26T13:06:56;11.13;;;5.57;;
69989;SDS011;57331;52.054;5.294;2024-02-26T13:09:33;14.05;;;6.75;;
69989;SDS011;57331;52.054;5.294;2024-02-26T13:12:04;17.77;;;5.75;;
69989;SDS011;57331;52.054;5.294;2024-02-26T13:14:32;14.27;;;5.90;;
69989;SDS011;57331;52.054;5.294;2024-02-26T13:17:00;14.82;;;5.80;;
69989;SDS011;57331;52.054;5.294;2024-02-26T13:19:29;14.50;;;5.53;;
69989;SDS011;57331;52.054;5.294;2024-02-26T13:22:02;19.50;;;8.90;;
69989;SDS011;57331;52.054;5.294;2024-02-26T13:24:34;21.95;;;7.97;;
69989;SDS011;57331;52.054;5.294;2024-02-26T13:27:01;12.45;;;5.18;;
69989;SDS011;57331;52.054;5.294;2024-02-26T13:29:31;22.52;;;8.40;;
69989;SDS011;57331;52.054;5.294;2024-02-26T13:31:58;17.17;;;6.33;;
69989;SDS011;57331;52.054;5.294;2024-02-26T13:34:26;15.60;;;7.25;;
69989;SDS011;57331;52.054;5.294;2024-02-26T13:36:54;12.75;;;6.55;;
69989;SDS011;57331;52.054;5.294;2024-02-26T13:39:22;11.20;;;5.20;;
69989;SDS011;57331;52.054;5.294;2024-02-26T13:41:53;14.57;;;6.32;;
69989;SDS011;57331;52.054;5.294;2024-02-26T13:44:21;13.23;;;7.10;;
69989;SDS011;57331;52.054;5.294;2024-02-26T13:46:48;16.05;;;7.18;;
69989;SDS011;57331;52.054;5.294;2024-02-26T13:49:16;13.20;;;7.30;;
69989;SDS011;57331;52.054;5.294;2024-02-26T13:51:43;12.20;;;6.15;;
69989;SDS011;57331;52.054;5.294;2024-02-26T13:54:11;13.05;;;6.70;;
69989;SDS011;57331;52.054;5.294;2024-02-26T13:56:40;15.37;;;6.77;;
69989;SDS011;57331;52.054;5.294;2024-02-26T13:59:10;13.32;;;7.18;;
69989;SDS011;57331;52.054;5.294;2024-02-26T14:01:38;14.57;;;6.93;;
69989;SDS011;57331;52.054;5.294;2024-02-26T14:04:05;13.43;;;5.72;;
69989;SDS011;57331;52.054;5.294;2024-02-26T14:06:35;10.82;;;6.13;;
69989;SDS011;57331;52.054;5.294;2024-02-26T14:09:02;13.00;;;5.97;;
69989;SDS011;57331;52.054;5.294;2024-02-26T14:11:30;12.05;;;6.07;;
69989;SDS011;57331;52.054;5.294;2024-02-26T14:13:58;13.98;;;6.82;;
69989;SDS011;57331;52.054;5.294;2024-02-26T14:16:25;13.18;;;6.43;;
69989;SDS011;57331;52.054;5.294;2024-02-26T14:18:56;10.80;;;5.60;;
69989;SDS011;57331;52.054;5.294;2024-02-26T14:21:23;12.03;;;5.47;;
69989;SDS011;57331;52.054;5.294;2024-02-26T14:23:51;9.63;;;4.68;;
69989;SDS011;57331;52.054;5.294;2024-02-26T14:26:18;11.73;;;5.93;;
69989;SDS011;57331;52.054;5.294;2024-02-26T14:28:45;9.57;;;4.72;;
69989;SDS011;57331;52.054;5.294;2024-02-26T14:31:12;10.77;;;5.10;;
69989;SDS011;57331;52.054;5.294;2024-02-26T14:33:43;9.83;;;4.50;;
69989;SDS011;57331;52.054;5.294;2024-02-26T14:36:11;8.18;;;3.72;;
69989;SDS011;57331;52.054;5.294;2024-02-26T14:38:39;10.40;;;5.10;;
69989;SDS011;57331;52.054;5.294;2024-02-26T14:41:06;8.38;;;4.35;;
69989;SDS011;57331;52.054;5.294;2024-02-26T14:43:33;13.32;;;4.35;;
69989;SDS011;57331;52.054;5.294;2024-02-26T14:46:01;9.37;;;4.83;;
69989;SDS011;57331;52.054;5.294;2024-02-26T14:48:29;8.95;;;4.38;;
69989;SDS011;57331;52.054;5.294;2024-02-26T14:50:58;9.50;;;4.68;;
69989;SDS011;57331;52.054;5.294;2024-02-26T14:53:26;10.07;;;3.67;;